Аэропорт: Гостомель. Киев

ICAO: UKKM

METAR:
2019/03/26 13:00
UKKM 261300Z 29007MPS CAVOK 07/M04 Q1011 R33/220250 TEMPO 31009G14MPS
METAR:
2019/03/26 12:12
TAF UKKM 261105Z 2612/2712 27005G10MPS 9999 BKN020 TX08/2612Z TN00/2704Z 
      TEMPO 2612/2620 31009G14MPS 2100 -SHRA BKN007 SCT015CB 
      BECMG 2620/2621 20005MPS 
      TEMPO 2621/2702 1400 -SHRASN BKN003 SCT012CB 
      BECMG 2702/2703 27005MPS 
      TEMPO 2703/2708 2000 -SHRASN BKN007 SCT012CB 
      BECMG 2708/2709 36006G11MPS 
      TEMPO 2709/2712 2100 -SHRASN BKN007 SCT015CB